sensor_id;sensor_type;location;lat;lon;timestamp;P1;durP1;ratioP1;P2;durP2;ratioP2
51529;SDS011;37613;51.788;21.582;2022-07-10T00:00:49;5.10;;;3.20;;
51529;SDS011;37613;51.788;21.582;2022-07-10T00:04:50;5.70;;;3.20;;
51529;SDS011;37613;51.788;21.582;2022-07-10T00:08:52;4.60;;;3.20;;
51529;SDS011;37613;51.788;21.582;2022-07-10T00:12:56;3.20;;;2.90;;
51529;SDS011;37613;51.788;21.582;2022-07-10T00:16:58;6.50;;;3.30;;
51529;SDS011;37613;51.788;21.582;2022-07-10T00:21:00;5.10;;;2.80;;
51529;SDS011;37613;51.788;21.582;2022-07-10T00:25:02;6.90;;;3.20;;
51529;SDS011;37613;51.788;21.582;2022-07-10T00:29:07;4.80;;;2.90;;
51529;SDS011;37613;51.788;21.582;2022-07-10T00:33:10;3.90;;;3.00;;
51529;SDS011;37613;51.788;21.582;2022-07-10T00:37:11;6.70;;;3.20;;
51529;SDS011;37613;51.788;21.582;2022-07-10T00:41:13;5.40;;;3.00;;
51529;SDS011;37613;51.788;21.582;2022-07-10T00:45:18;4.60;;;3.00;;
51529;SDS011;37613;51.788;21.582;2022-07-10T00:49:20;3.80;;;2.70;;
51529;SDS011;37613;51.788;21.582;2022-07-10T00:53:21;7.60;;;2.80;;
51529;SDS011;37613;51.788;21.582;2022-07-10T00:57:23;5.00;;;2.90;;
51529;SDS011;37613;51.788;21.582;2022-07-10T01:01:25;4.40;;;3.20;;
51529;SDS011;37613;51.788;21.582;2022-07-10T01:05:27;5.20;;;2.80;;
51529;SDS011;37613;51.788;21.582;2022-07-10T01:09:31;6.10;;;2.70;;
51529;SDS011;37613;51.788;21.582;2022-07-10T01:13:34;7.30;;;2.90;;
51529;SDS011;37613;51.788;21.582;2022-07-10T01:17:36;3.20;;;2.60;;
51529;SDS011;37613;51.788;21.582;2022-07-10T01:21:38;5.60;;;2.80;;
51529;SDS011;37613;51.788;21.582;2022-07-10T01:25:40;4.10;;;2.80;;
51529;SDS011;37613;51.788;21.582;2022-07-10T01:29:42;6.20;;;2.80;;
51529;SDS011;37613;51.788;21.582;2022-07-10T01:33:48;4.10;;;2.70;;
51529;SDS011;37613;51.788;21.582;2022-07-10T01:37:50;3.60;;;2.60;;
51529;SDS011;37613;51.788;21.582;2022-07-10T01:41:52;3.70;;;2.50;;
51529;SDS011;37613;51.788;21.582;2022-07-10T01:45:54;4.10;;;2.70;;
51529;SDS011;37613;51.788;21.582;2022-07-10T01:49:55;9.70;;;3.40;;
51529;SDS011;37613;51.788;21.582;2022-07-10T01:53:57;14.80;;;3.00;;
51529;SDS011;37613;51.788;21.582;2022-07-10T01:57:59;6.90;;;3.80;;
51529;SDS011;37613;51.788;21.582;2022-07-10T02:02:01;3.90;;;3.10;;
51529;SDS011;37613;51.788;21.582;2022-07-10T02:06:05;5.50;;;3.20;;
51529;SDS011;37613;51.788;21.582;2022-07-10T02:10:07;6.50;;;3.20;;
51529;SDS011;37613;51.788;21.582;2022-07-10T02:14:09;5.30;;;3.40;;
51529;SDS011;37613;51.788;21.582;2022-07-10T02:18:11;9.30;;;2.80;;
51529;SDS011;37613;51.788;21.582;2022-07-10T02:22:13;3.90;;;3.00;;
51529;SDS011;37613;51.788;21.582;2022-07-10T02:26:15;7.50;;;3.20;;
51529;SDS011;37613;51.788;21.582;2022-07-10T02:30:17;7.30;;;3.10;;
51529;SDS011;37613;51.788;21.582;2022-07-10T02:34:20;6.20;;;3.10;;
51529;SDS011;37613;51.788;21.582;2022-07-10T02:38:21;4.30;;;2.80;;
51529;SDS011;37613;51.788;21.582;2022-07-10T02:42:23;5.30;;;3.30;;
51529;SDS011;37613;51.788;21.582;2022-07-10T02:46:25;8.70;;;3.60;;
51529;SDS011;37613;51.788;21.582;2022-07-10T02:50:27;5.50;;;3.30;;
51529;SDS011;37613;51.788;21.582;2022-07-10T02:54:29;5.50;;;3.50;;
51529;SDS011;37613;51.788;21.582;2022-07-10T02:58:31;5.90;;;3.80;;
51529;SDS011;37613;51.788;21.582;2022-07-10T03:02:34;6.80;;;4.00;;
51529;SDS011;37613;51.788;21.582;2022-07-10T03:06:36;5.00;;;3.20;;
51529;SDS011;37613;51.788;21.582;2022-07-10T03:10:38;8.00;;;3.60;;
51529;SDS011;37613;51.788;21.582;2022-07-10T03:14:40;7.90;;;3.90;;
51529;SDS011;37613;51.788;21.582;2022-07-10T03:18:42;8.20;;;3.80;;
51529;SDS011;37613;51.788;21.582;2022-07-10T03:22:44;4.70;;;3.70;;
51529;SDS011;37613;51.788;21.582;2022-07-10T03:26:46;5.40;;;4.10;;
51529;SDS011;37613;51.788;21.582;2022-07-10T03:30:48;5.50;;;3.90;;
51529;SDS011;37613;51.788;21.582;2022-07-10T03:34:50;7.20;;;3.50;;
51529;SDS011;37613;51.788;21.582;2022-07-10T03:38:52;7.90;;;3.30;;
51529;SDS011;37613;51.788;21.582;2022-07-10T03:42:54;7.00;;;3.50;;
51529;SDS011;37613;51.788;21.582;2022-07-10T03:46:56;5.40;;;3.40;;
51529;SDS011;37613;51.788;21.582;2022-07-10T03:50:58;3.70;;;3.10;;
51529;SDS011;37613;51.788;21.582;2022-07-10T03:55:00;5.30;;;3.40;;
51529;SDS011;37613;51.788;21.582;2022-07-10T03:59:03;6.30;;;3.80;;
51529;SDS011;37613;51.788;21.582;2022-07-10T04:03:05;6.60;;;2.90;;
51529;SDS011;37613;51.788;21.582;2022-07-10T04:07:08;6.00;;;3.20;;
51529;SDS011;37613;51.788;21.582;2022-07-10T04:11:12;4.90;;;3.20;;
51529;SDS011;37613;51.788;21.582;2022-07-10T04:15:14;3.30;;;3.00;;
51529;SDS011;37613;51.788;21.582;2022-07-10T04:19:16;3.30;;;2.70;;
51529;SDS011;37613;51.788;21.582;2022-07-10T04:23:18;6.50;;;2.90;;
51529;SDS011;37613;51.788;21.582;2022-07-10T04:27:21;6.30;;;3.00;;
51529;SDS011;37613;51.788;21.582;2022-07-10T04:31:23;6.20;;;3.60;;
51529;SDS011;37613;51.788;21.582;2022-07-10T04:35:25;3.90;;;2.40;;
51529;SDS011;37613;51.788;21.582;2022-07-10T04:39:26;2.00;;;1.80;;
51529;SDS011;37613;51.788;21.582;2022-07-10T04:43:29;3.10;;;2.30;;
51529;SDS011;37613;51.788;21.582;2022-07-10T04:47:32;4.20;;;1.90;;
51529;SDS011;37613;51.788;21.582;2022-07-10T04:55:36;5.40;;;2.20;;
51529;SDS011;37613;51.788;21.582;2022-07-10T04:59:39;6.80;;;1.90;;
51529;SDS011;37613;51.788;21.582;2022-07-10T05:03:41;2.30;;;1.70;;
51529;SDS011;37613;51.788;21.582;2022-07-10T05:07:44;2.10;;;1.30;;
51529;SDS011;37613;51.788;21.582;2022-07-10T05:11:45;1.30;;;1.20;;
51529;SDS011;37613;51.788;21.582;2022-07-10T05:19:51;8.60;;;3.90;;
51529;SDS011;37613;51.788;21.582;2022-07-10T05:23:54;4.50;;;2.20;;
51529;SDS011;37613;51.788;21.582;2022-07-10T05:27:56;2.20;;;1.40;;
51529;SDS011;37613;51.788;21.582;2022-07-10T05:36:00;2.10;;;1.50;;
51529;SDS011;37613;51.788;21.582;2022-07-10T05:40:02;3.10;;;2.00;;
51529;SDS011;37613;51.788;21.582;2022-07-10T05:44:04;2.40;;;1.70;;
51529;SDS011;37613;51.788;21.582;2022-07-10T05:48:09;1.40;;;1.30;;
51529;SDS011;37613;51.788;21.582;2022-07-10T05:52:11;2.30;;;1.80;;
51529;SDS011;37613;51.788;21.582;2022-07-10T05:56:14;3.50;;;1.70;;
51529;SDS011;37613;51.788;21.582;2022-07-10T06:00:15;3.20;;;2.20;;
51529;SDS011;37613;51.788;21.582;2022-07-10T06:04:17;2.80;;;1.70;;
51529;SDS011;37613;51.788;21.582;2022-07-10T06:08:19;2.20;;;1.40;;
51529;SDS011;37613;51.788;21.582;2022-07-10T06:12:22;3.70;;;1.80;;
51529;SDS011;37613;51.788;21.582;2022-07-10T06:16:24;2.10;;;1.40;;
51529;SDS011;37613;51.788;21.582;2022-07-10T06:20:25;2.00;;;1.30;;
51529;SDS011;37613;51.788;21.582;2022-07-10T06:24:27;3.80;;;1.20;;
51529;SDS011;37613;51.788;21.582;2022-07-10T06:28:29;2.60;;;1.10;;
51529;SDS011;37613;51.788;21.582;2022-07-10T06:32:31;4.90;;;1.30;;
51529;SDS011;37613;51.788;21.582;2022-07-10T06:36:33;2.30;;;1.10;;
51529;SDS011;37613;51.788;21.582;2022-07-10T06:40:35;2.10;;;1.10;;
51529;SDS011;37613;51.788;21.582;2022-07-10T06:44:38;2.70;;;1.10;;
51529;SDS011;37613;51.788;21.582;2022-07-10T06:48:40;3.70;;;1.30;;
51529;SDS011;37613;51.788;21.582;2022-07-10T06:52:42;3.30;;;1.50;;
51529;SDS011;37613;51.788;21.582;2022-07-10T06:56:44;3.00;;;1.80;;
51529;SDS011;37613;51.788;21.582;2022-07-10T07:00:46;5.60;;;4.40;;
51529;SDS011;37613;51.788;21.582;2022-07-10T07:04:48;6.30;;;3.30;;
51529;SDS011;37613;51.788;21.582;2022-07-10T07:08:49;4.20;;;1.90;;
51529;SDS011;37613;51.788;21.582;2022-07-10T07:12:53;8.10;;;3.10;;
51529;SDS011;37613;51.788;21.582;2022-07-10T07:17:04;3.20;;;1.30;;
51529;SDS011;37613;51.788;21.582;2022-07-10T07:21:10;9.20;;;5.60;;
51529;SDS011;37613;51.788;21.582;2022-07-10T07:25:31;4.30;;;2.50;;
51529;SDS011;37613;51.788;21.582;2022-07-10T07:29:32;4.30;;;1.30;;
51529;SDS011;37613;51.788;21.582;2022-07-10T07:33:34;3.40;;;1.80;;
51529;SDS011;37613;51.788;21.582;2022-07-10T07:41:42;1.50;;;0.90;;
51529;SDS011;37613;51.788;21.582;2022-07-10T07:45:43;5.10;;;1.00;;
51529;SDS011;37613;51.788;21.582;2022-07-10T07:49:45;5.30;;;1.20;;
51529;SDS011;37613;51.788;21.582;2022-07-10T07:53:47;3.60;;;1.20;;
51529;SDS011;37613;51.788;21.582;2022-07-10T07:57:53;2.10;;;1.20;;
51529;SDS011;37613;51.788;21.582;2022-07-10T08:01:56;2.80;;;1.20;;
51529;SDS011;37613;51.788;21.582;2022-07-10T08:05:58;4.10;;;2.00;;
51529;SDS011;37613;51.788;21.582;2022-07-10T08:10:00;6.20;;;1.50;;
51529;SDS011;37613;51.788;21.582;2022-07-10T08:14:03;2.00;;;1.50;;
51529;SDS011;37613;51.788;21.582;2022-07-10T08:18:05;4.90;;;2.20;;
51529;SDS011;37613;51.788;21.582;2022-07-10T08:22:08;7.50;;;3.00;;
51529;SDS011;37613;51.788;21.582;2022-07-10T08:26:10;9.40;;;5.60;;
51529;SDS011;37613;51.788;21.582;2022-07-10T08:30:12;5.30;;;2.70;;
51529;SDS011;37613;51.788;21.582;2022-07-10T08:34:14;4.20;;;1.80;;
51529;SDS011;37613;51.788;21.582;2022-07-10T08:38:16;5.20;;;2.10;;
51529;SDS011;37613;51.788;21.582;2022-07-10T08:42:18;5.20;;;2.20;;
51529;SDS011;37613;51.788;21.582;2022-07-10T08:46:21;5.20;;;1.60;;
51529;SDS011;37613;51.788;21.582;2022-07-10T08:50:24;3.90;;;1.70;;
51529;SDS011;37613;51.788;21.582;2022-07-10T08:54:29;4.00;;;1.60;;
51529;SDS011;37613;51.788;21.582;2022-07-10T08:58:31;4.30;;;1.50;;
51529;SDS011;37613;51.788;21.582;2022-07-10T09:02:34;6.00;;;1.60;;
51529;SDS011;37613;51.788;21.582;2022-07-10T09:06:36;2.70;;;1.80;;
51529;SDS011;37613;51.788;21.582;2022-07-10T09:10:38;2.80;;;1.40;;
51529;SDS011;37613;51.788;21.582;2022-07-10T09:14:40;2.50;;;1.50;;
51529;SDS011;37613;51.788;21.582;2022-07-10T09:18:42;5.80;;;1.40;;
51529;SDS011;37613;51.788;21.582;2022-07-10T09:22:43;2.60;;;1.20;;
51529;SDS011;37613;51.788;21.582;2022-07-10T09:31:02;1.50;;;1.10;;
51529;SDS011;37613;51.788;21.582;2022-07-10T09:35:03;4.30;;;1.20;;
51529;SDS011;37613;51.788;21.582;2022-07-10T09:39:25;5.20;;;1.10;;
51529;SDS011;37613;51.788;21.582;2022-07-10T09:43:27;2.20;;;0.90;;
51529;SDS011;37613;51.788;21.582;2022-07-10T09:47:56;2.90;;;0.80;;
51529;SDS011;37613;51.788;21.582;2022-07-10T09:52:00;5.60;;;0.90;;
51529;SDS011;37613;51.788;21.582;2022-07-10T09:56:02;3.30;;;0.80;;
51529;SDS011;37613;51.788;21.582;2022-07-10T10:04:06;2.10;;;0.90;;
51529;SDS011;37613;51.788;21.582;2022-07-10T10:08:11;1.80;;;1.00;;
51529;SDS011;37613;51.788;21.582;2022-07-10T10:12:35;2.10;;;1.10;;
51529;SDS011;37613;51.788;21.582;2022-07-10T10:16:46;3.10;;;0.80;;
51529;SDS011;37613;51.788;21.582;2022-07-10T10:20:49;2.70;;;1.00;;
51529;SDS011;37613;51.788;21.582;2022-07-10T10:24:53;3.70;;;1.00;;
51529;SDS011;37613;51.788;21.582;2022-07-10T10:28:57;3.50;;;1.00;;
51529;SDS011;37613;51.788;21.582;2022-07-10T10:33:01;3.20;;;1.10;;
51529;SDS011;37613;51.788;21.582;2022-07-10T10:37:03;1.20;;;0.50;;
51529;SDS011;37613;51.788;21.582;2022-07-10T10:45:47;0.90;;;0.50;;
51529;SDS011;37613;51.788;21.582;2022-07-10T10:49:54;3.00;;;0.70;;
51529;SDS011;37613;51.788;21.582;2022-07-10T10:54:04;2.10;;;0.80;;
51529;SDS011;37613;51.788;21.582;2022-07-10T10:58:17;2.90;;;0.60;;
51529;SDS011;37613;51.788;21.582;2022-07-10T11:02:26;2.50;;;0.70;;
51529;SDS011;37613;51.788;21.582;2022-07-10T11:06:54;1.60;;;0.80;;
51529;SDS011;37613;51.788;21.582;2022-07-10T11:10:56;1.30;;;0.70;;
51529;SDS011;37613;51.788;21.582;2022-07-10T11:15:00;1.50;;;1.20;;
51529;SDS011;37613;51.788;21.582;2022-07-10T11:19:08;1.10;;;0.70;;
51529;SDS011;37613;51.788;21.582;2022-07-10T11:32:05;6.40;;;0.90;;
51529;SDS011;37613;51.788;21.582;2022-07-10T11:36:11;1.40;;;0.70;;
51529;SDS011;37613;51.788;21.582;2022-07-10T11:40:23;1.40;;;0.60;;
51529;SDS011;37613;51.788;21.582;2022-07-10T11:44:25;2.00;;;0.80;;
51529;SDS011;37613;51.788;21.582;2022-07-10T11:48:29;3.10;;;0.90;;
51529;SDS011;37613;51.788;21.582;2022-07-10T11:52:34;1.50;;;0.70;;
51529;SDS011;37613;51.788;21.582;2022-07-10T11:56:41;1.60;;;0.70;;
51529;SDS011;37613;51.788;21.582;2022-07-10T12:05:36;1.70;;;0.80;;
51529;SDS011;37613;51.788;21.582;2022-07-10T12:09:39;3.00;;;1.00;;
51529;SDS011;37613;51.788;21.582;2022-07-10T12:13:45;1.30;;;0.70;;
51529;SDS011;37613;51.788;21.582;2022-07-10T12:17:50;3.10;;;0.80;;
51529;SDS011;37613;51.788;21.582;2022-07-10T12:21:53;6.80;;;1.20;;
51529;SDS011;37613;51.788;21.582;2022-07-10T12:25:59;2.90;;;0.90;;
51529;SDS011;37613;51.788;21.582;2022-07-10T12:30:01;2.10;;;0.80;;
51529;SDS011;37613;51.788;21.582;2022-07-10T12:34:03;3.60;;;0.90;;
51529;SDS011;37613;51.788;21.582;2022-07-10T12:38:06;4.20;;;1.10;;
51529;SDS011;37613;51.788;21.582;2022-07-10T12:42:26;1.40;;;0.70;;
51529;SDS011;37613;51.788;21.582;2022-07-10T12:46:29;1.30;;;0.70;;
51529;SDS011;37613;51.788;21.582;2022-07-10T12:50:32;2.30;;;0.80;;
51529;SDS011;37613;51.788;21.582;2022-07-10T12:54:34;3.70;;;1.50;;
51529;SDS011;37613;51.788;21.582;2022-07-10T12:58:42;2.90;;;1.30;;
51529;SDS011;37613;51.788;21.582;2022-07-10T13:02:47;1.60;;;1.10;;
51529;SDS011;37613;51.788;21.582;2022-07-10T13:06:52;5.50;;;1.30;;
51529;SDS011;37613;51.788;21.582;2022-07-10T13:10:58;4.10;;;1.20;;
51529;SDS011;37613;51.788;21.582;2022-07-10T13:15:00;4.20;;;2.00;;
51529;SDS011;37613;51.788;21.582;2022-07-10T13:19:04;3.80;;;2.10;;
51529;SDS011;37613;51.788;21.582;2022-07-10T13:23:06;4.50;;;1.50;;
51529;SDS011;37613;51.788;21.582;2022-07-10T13:27:08;2.20;;;1.20;;
51529;SDS011;37613;51.788;21.582;2022-07-10T13:31:10;3.20;;;1.20;;
51529;SDS011;37613;51.788;21.582;2022-07-10T13:35:13;2.20;;;1.10;;
51529;SDS011;37613;51.788;21.582;2022-07-10T13:39:15;2.60;;;1.00;;
51529;SDS011;37613;51.788;21.582;2022-07-10T13:43:20;5.10;;;0.80;;
51529;SDS011;37613;51.788;21.582;2022-07-10T13:47:28;3.40;;;1.00;;
51529;SDS011;37613;51.788;21.582;2022-07-10T13:51:30;1.70;;;0.70;;
51529;SDS011;37613;51.788;21.582;2022-07-10T13:55:35;5.70;;;0.90;;
51529;SDS011;37613;51.788;21.582;2022-07-10T13:59:37;3.00;;;1.10;;
51529;SDS011;37613;51.788;21.582;2022-07-10T14:03:39;1.10;;;0.70;;
51529;SDS011;37613;51.788;21.582;2022-07-10T14:07:41;3.10;;;1.00;;
51529;SDS011;37613;51.788;21.582;2022-07-10T14:11:43;3.90;;;0.60;;
51529;SDS011;37613;51.788;21.582;2022-07-10T14:15:45;2.30;;;0.90;;
51529;SDS011;37613;51.788;21.582;2022-07-10T14:23:52;4.60;;;0.80;;
51529;SDS011;37613;51.788;21.582;2022-07-10T14:27:54;4.50;;;0.90;;
51529;SDS011;37613;51.788;21.582;2022-07-10T14:31:56;1.40;;;0.60;;
51529;SDS011;37613;51.788;21.582;2022-07-10T14:35:59;1.60;;;0.50;;
51529;SDS011;37613;51.788;21.582;2022-07-10T14:40:01;2.30;;;0.60;;
51529;SDS011;37613;51.788;21.582;2022-07-10T14:44:05;1.60;;;0.60;;
51529;SDS011;37613;51.788;21.582;2022-07-10T14:52:09;1.00;;;0.70;;
51529;SDS011;37613;51.788;21.582;2022-07-10T14:56:14;1.60;;;0.50;;
51529;SDS011;37613;51.788;21.582;2022-07-10T15:00:18;3.10;;;0.60;;
51529;SDS011;37613;51.788;21.582;2022-07-10T15:04:20;2.00;;;0.50;;
51529;SDS011;37613;51.788;21.582;2022-07-10T15:08:22;3.60;;;0.60;;
51529;SDS011;37613;51.788;21.582;2022-07-10T15:12:25;1.50;;;0.50;;
51529;SDS011;37613;51.788;21.582;2022-07-10T15:16:27;2.40;;;0.60;;
51529;SDS011;37613;51.788;21.582;2022-07-10T15:20:29;1.80;;;0.90;;
51529;SDS011;37613;51.788;21.582;2022-07-10T15:24:31;2.20;;;0.70;;
51529;SDS011;37613;51.788;21.582;2022-07-10T15:28:33;3.20;;;0.80;;
51529;SDS011;37613;51.788;21.582;2022-07-10T15:32:35;2.20;;;0.70;;
51529;SDS011;37613;51.788;21.582;2022-07-10T15:36:40;0.90;;;0.80;;
51529;SDS011;37613;51.788;21.582;2022-07-10T15:40:42;1.50;;;0.70;;
51529;SDS011;37613;51.788;21.582;2022-07-10T15:44:44;1.90;;;0.70;;
51529;SDS011;37613;51.788;21.582;2022-07-10T15:48:46;1.10;;;0.70;;
51529;SDS011;37613;51.788;21.582;2022-07-10T15:52:48;4.80;;;1.00;;
51529;SDS011;37613;51.788;21.582;2022-07-10T15:56:50;5.70;;;2.50;;
51529;SDS011;37613;51.788;21.582;2022-07-10T16:00:52;1.00;;;0.80;;
51529;SDS011;37613;51.788;21.582;2022-07-10T16:04:54;1.30;;;0.70;;
51529;SDS011;37613;51.788;21.582;2022-07-10T16:08:56;0.50;;;0.50;;
51529;SDS011;37613;51.788;21.582;2022-07-10T16:12:58;0.80;;;0.40;;
51529;SDS011;37613;51.788;21.582;2022-07-10T16:16:59;0.70;;;0.50;;
51529;SDS011;37613;51.788;21.582;2022-07-10T16:21:02;1.40;;;0.60;;
51529;SDS011;37613;51.788;21.582;2022-07-10T16:25:04;1.20;;;0.50;;
51529;SDS011;37613;51.788;21.582;2022-07-10T16:29:25;4.30;;;1.00;;
51529;SDS011;37613;51.788;21.582;2022-07-10T16:33:27;0.80;;;0.40;;
51529;SDS011;37613;51.788;21.582;2022-07-10T16:37:30;1.20;;;0.60;;
51529;SDS011;37613;51.788;21.582;2022-07-10T16:41:33;0.50;;;0.50;;
51529;SDS011;37613;51.788;21.582;2022-07-10T16:45:35;2.80;;;0.60;;
51529;SDS011;37613;51.788;21.582;2022-07-10T16:49:38;2.30;;;0.90;;
51529;SDS011;37613;51.788;21.582;2022-07-10T16:53:40;0.70;;;0.50;;
51529;SDS011;37613;51.788;21.582;2022-07-10T16:57:42;0.90;;;0.80;;
51529;SDS011;37613;51.788;21.582;2022-07-10T17:01:44;1.50;;;0.80;;
51529;SDS011;37613;51.788;21.582;2022-07-10T17:05:46;0.80;;;0.60;;
51529;SDS011;37613;51.788;21.582;2022-07-10T17:09:48;1.20;;;0.70;;
51529;SDS011;37613;51.788;21.582;2022-07-10T17:13:50;1.60;;;0.80;;
51529;SDS011;37613;51.788;21.582;2022-07-10T17:21:55;3.00;;;0.70;;
51529;SDS011;37613;51.788;21.582;2022-07-10T17:25:58;2.20;;;1.00;;
51529;SDS011;37613;51.788;21.582;2022-07-10T17:29:59;1.40;;;0.90;;
51529;SDS011;37613;51.788;21.582;2022-07-10T17:34:02;1.20;;;0.90;;
51529;SDS011;37613;51.788;21.582;2022-07-10T17:38:03;2.40;;;1.00;;
51529;SDS011;37613;51.788;21.582;2022-07-10T17:42:05;1.70;;;0.80;;
51529;SDS011;37613;51.788;21.582;2022-07-10T17:46:10;4.40;;;1.20;;
51529;SDS011;37613;51.788;21.582;2022-07-10T17:50:12;5.50;;;1.20;;
51529;SDS011;37613;51.788;21.582;2022-07-10T17:54:14;3.30;;;1.20;;
51529;SDS011;37613;51.788;21.582;2022-07-10T17:58:16;1.40;;;1.00;;
51529;SDS011;37613;51.788;21.582;2022-07-10T18:02:18;2.00;;;1.00;;
51529;SDS011;37613;51.788;21.582;2022-07-10T18:06:23;1.80;;;0.80;;
51529;SDS011;37613;51.788;21.582;2022-07-10T18:10:25;2.50;;;1.50;;
51529;SDS011;37613;51.788;21.582;2022-07-10T18:14:29;4.50;;;1.20;;
51529;SDS011;37613;51.788;21.582;2022-07-10T18:18:30;2.70;;;1.20;;
51529;SDS011;37613;51.788;21.582;2022-07-10T18:22:32;4.40;;;3.20;;
51529;SDS011;37613;51.788;21.582;2022-07-10T18:26:34;15.10;;;8.00;;
51529;SDS011;37613;51.788;21.582;2022-07-10T18:30:36;4.80;;;3.50;;
51529;SDS011;37613;51.788;21.582;2022-07-10T18:34:38;3.00;;;2.40;;
51529;SDS011;37613;51.788;21.582;2022-07-10T18:38:41;4.70;;;2.00;;
51529;SDS011;37613;51.788;21.582;2022-07-10T18:42:43;1.90;;;1.30;;
51529;SDS011;37613;51.788;21.582;2022-07-10T18:46:46;2.20;;;1.30;;
51529;SDS011;37613;51.788;21.582;2022-07-10T18:50:48;1.10;;;1.10;;
51529;SDS011;37613;51.788;21.582;2022-07-10T18:54:52;1.60;;;1.00;;
51529;SDS011;37613;51.788;21.582;2022-07-10T18:58:54;2.20;;;1.20;;
51529;SDS011;37613;51.788;21.582;2022-07-10T19:02:56;1.90;;;1.20;;
51529;SDS011;37613;51.788;21.582;2022-07-10T19:06:58;3.50;;;1.20;;
51529;SDS011;37613;51.788;21.582;2022-07-10T19:11:00;1.30;;;0.80;;
51529;SDS011;37613;51.788;21.582;2022-07-10T19:15:06;2.40;;;0.90;;
51529;SDS011;37613;51.788;21.582;2022-07-10T19:19:08;1.20;;;0.70;;
51529;SDS011;37613;51.788;21.582;2022-07-10T19:23:10;0.90;;;0.60;;
51529;SDS011;37613;51.788;21.582;2022-07-10T19:27:12;0.80;;;0.70;;
51529;SDS011;37613;51.788;21.582;2022-07-10T19:31:14;1.10;;;0.60;;
51529;SDS011;37613;51.788;21.582;2022-07-10T19:35:18;1.90;;;0.50;;
51529;SDS011;37613;51.788;21.582;2022-07-10T19:39:19;0.90;;;0.60;;
51529;SDS011;37613;51.788;21.582;2022-07-10T19:43:22;0.60;;;0.60;;
51529;SDS011;37613;51.788;21.582;2022-07-10T19:47:24;2.20;;;0.60;;
51529;SDS011;37613;51.788;21.582;2022-07-10T19:51:27;2.40;;;1.50;;
51529;SDS011;37613;51.788;21.582;2022-07-10T19:55:28;0.50;;;0.50;;
51529;SDS011;37613;51.788;21.582;2022-07-10T19:59:30;1.60;;;0.70;;
51529;SDS011;37613;51.788;21.582;2022-07-10T20:03:32;0.90;;;0.50;;
51529;SDS011;37613;51.788;21.582;2022-07-10T20:07:35;1.20;;;0.50;;
51529;SDS011;37613;51.788;21.582;2022-07-10T20:11:37;3.90;;;1.30;;
51529;SDS011;37613;51.788;21.582;2022-07-10T20:15:42;16.50;;;6.60;;
51529;SDS011;37613;51.788;21.582;2022-07-10T20:19:44;2.90;;;1.10;;
51529;SDS011;37613;51.788;21.582;2022-07-10T20:23:46;1.60;;;0.70;;
51529;SDS011;37613;51.788;21.582;2022-07-10T20:27:48;2.20;;;0.70;;
51529;SDS011;37613;51.788;21.582;2022-07-10T20:31:49;0.50;;;0.50;;
51529;SDS011;37613;51.788;21.582;2022-07-10T20:35:52;3.90;;;2.60;;
51529;SDS011;37613;51.788;21.582;2022-07-10T20:40:13;4.80;;;4.00;;
51529;SDS011;37613;51.788;21.582;2022-07-10T20:44:16;7.90;;;2.40;;
51529;SDS011;37613;51.788;21.582;2022-07-10T20:48:18;11.10;;;7.80;;
51529;SDS011;37613;51.788;21.582;2022-07-10T20:52:20;9.80;;;5.90;;
51529;SDS011;37613;51.788;21.582;2022-07-10T20:56:22;6.40;;;3.60;;
51529;SDS011;37613;51.788;21.582;2022-07-10T21:00:24;3.20;;;2.80;;
51529;SDS011;37613;51.788;21.582;2022-07-10T21:04:26;2.40;;;1.90;;
51529;SDS011;37613;51.788;21.582;2022-07-10T21:08:28;4.10;;;2.90;;
51529;SDS011;37613;51.788;21.582;2022-07-10T21:12:31;3.60;;;3.20;;
51529;SDS011;37613;51.788;21.582;2022-07-10T21:16:33;12.40;;;8.10;;
51529;SDS011;37613;51.788;21.582;2022-07-10T21:20:36;8.70;;;7.50;;
51529;SDS011;37613;51.788;21.582;2022-07-10T21:24:38;37.50;;;25.70;;
51529;SDS011;37613;51.788;21.582;2022-07-10T21:28:40;21.10;;;12.10;;
51529;SDS011;37613;51.788;21.582;2022-07-10T21:32:45;32.60;;;19.50;;
51529;SDS011;37613;51.788;21.582;2022-07-10T21:36:50;15.60;;;10.10;;
51529;SDS011;37613;51.788;21.582;2022-07-10T21:40:52;26.50;;;16.60;;
51529;SDS011;37613;51.788;21.582;2022-07-10T21:44:54;10.00;;;8.00;;
51529;SDS011;37613;51.788;21.582;2022-07-10T21:48:55;8.10;;;4.70;;
51529;SDS011;37613;51.788;21.582;2022-07-10T21:52:57;5.90;;;4.00;;
51529;SDS011;37613;51.788;21.582;2022-07-10T21:57:04;3.20;;;1.60;;
51529;SDS011;37613;51.788;21.582;2022-07-10T22:01:06;2.50;;;1.20;;
51529;SDS011;37613;51.788;21.582;2022-07-10T22:05:08;3.10;;;1.60;;
51529;SDS011;37613;51.788;21.582;2022-07-10T22:09:10;5.20;;;1.10;;
51529;SDS011;37613;51.788;21.582;2022-07-10T22:13:12;4.20;;;1.30;;
51529;SDS011;37613;51.788;21.582;2022-07-10T22:17:14;3.40;;;1.10;;
51529;SDS011;37613;51.788;21.582;2022-07-10T22:21:16;2.60;;;1.20;;
51529;SDS011;37613;51.788;21.582;2022-07-10T22:25:18;2.50;;;1.10;;
51529;SDS011;37613;51.788;21.582;2022-07-10T22:29:20;6.20;;;1.20;;
51529;SDS011;37613;51.788;21.582;2022-07-10T22:33:23;2.40;;;1.00;;
51529;SDS011;37613;51.788;21.582;2022-07-10T22:37:25;3.30;;;1.40;;
51529;SDS011;37613;51.788;21.582;2022-07-10T22:41:27;2.10;;;1.10;;
51529;SDS011;37613;51.788;21.582;2022-07-10T22:45:31;2.90;;;1.30;;
51529;SDS011;37613;51.788;21.582;2022-07-10T22:49:33;4.50;;;1.30;;
51529;SDS011;37613;51.788;21.582;2022-07-10T22:53:35;1.40;;;1.30;;
51529;SDS011;37613;51.788;21.582;2022-07-10T22:57:37;2.70;;;1.10;;
51529;SDS011;37613;51.788;21.582;2022-07-10T23:01:39;2.60;;;1.40;;
51529;SDS011;37613;51.788;21.582;2022-07-10T23:05:41;2.10;;;1.00;;
51529;SDS011;37613;51.788;21.582;2022-07-10T23:09:43;3.40;;;1.70;;
51529;SDS011;37613;51.788;21.582;2022-07-10T23:13:45;1.60;;;1.10;;
51529;SDS011;37613;51.788;21.582;2022-07-10T23:17:47;2.10;;;1.60;;
51529;SDS011;37613;51.788;21.582;2022-07-10T23:21:50;6.50;;;1.40;;
51529;SDS011;37613;51.788;21.582;2022-07-10T23:25:52;3.10;;;1.50;;
51529;SDS011;37613;51.788;21.582;2022-07-10T23:29:54;2.20;;;1.40;;
51529;SDS011;37613;51.788;21.582;2022-07-10T23:33:57;4.30;;;1.50;;
51529;SDS011;37613;51.788;21.582;2022-07-10T23:37:59;3.20;;;1.50;;
51529;SDS011;37613;51.788;21.582;2022-07-10T23:42:01;4.50;;;1.50;;
